Time;durP1;ratioP1;P1;durP2;ratioP2;P2;SDS_P1;SDS_P2;PMS_P1;PMS_P2;Temp;Humidity;BMP_temperature;BMP_pressure;BME280_temperature;BME280_humidity;BME280_pressure;Samples;Min_cycle;Max_cycle;Signal;HPM_P1;HPM_P2
2022/02/22 00:01:51;;;;;;;3.03;2.20;;;4.50;99.90;;;;;;477219;249;28097;-75
2022/02/22 00:03:53;;;;;;;3.87;1.85;;;4.50;99.90;;;;;;485020;245;27837;-74
2022/02/22 00:05:54;;;;;;;2.92;2.10;;;4.50;99.90;;;;;;477194;249;27606;-75
2022/02/22 00:07:55;;;;;;;3.42;2.35;;;4.40;99.90;;;;;;485032;245;27383;-74
2022/02/22 00:09:56;;;;;;;4.47;2.00;;;4.40;99.90;;;;;;477227;249;27582;-75
2022/02/22 00:11:58;;;;;;;5.62;2.50;;;4.40;99.90;;;;;;485025;245;27451;-75
2022/02/22 00:13:59;;;;;;;4.50;2.15;;;4.40;99.90;;;;;;477203;249;27501;-74
2022/02/22 00:16:00;;;;;;;4.93;2.17;;;4.40;99.90;;;;;;485013;245;27483;-75
2022/02/22 00:18:02;;;;;;;2.90;2.05;;;4.40;99.90;;;;;;477211;249;27580;-75
2022/02/22 00:20:03;;;;;;;11.70;2.30;;;4.40;99.90;;;;;;485039;245;27368;-75
2022/02/22 00:22:04;;;;;;;5.55;2.30;;;4.30;99.90;;;;;;477232;249;28031;-75
2022/02/22 00:24:05;;;;;;;6.80;2.25;;;4.30;99.90;;;;;;485018;245;27822;-74
2022/02/22 00:26:07;;;;;;;4.75;2.20;;;4.30;99.90;;;;;;477220;249;27994;-75
2022/02/22 00:28:08;;;;;;;4.95;1.95;;;4.20;99.90;;;;;;485007;245;27476;-74
2022/02/22 00:30:09;;;;;;;8.50;2.00;;;4.20;99.90;;;;;;477213;249;27483;-75
2022/02/22 00:32:10;;;;;;;5.47;2.08;;;4.20;99.90;;;;;;485010;245;27403;-75
2022/02/22 00:34:12;;;;;;;3.67;2.08;;;4.10;99.90;;;;;;477192;249;27535;-74
2022/02/22 00:36:13;;;;;;;2.42;1.70;;;4.10;99.90;;;;;;484990;245;27411;-75
2022/02/22 00:38:14;;;;;;;3.00;2.12;;;4.10;99.90;;;;;;477177;249;27574;-75
2022/02/22 00:40:15;;;;;;;3.28;2.70;;;4.10;99.90;;;;;;485034;245;27369;-75
2022/02/22 00:42:17;;;;;;;5.45;2.45;;;4.00;99.90;;;;;;477217;249;27511;-75
2022/02/22 00:44:18;;;;;;;4.75;1.90;;;4.00;99.90;;;;;;484988;245;27362;-75
2022/02/22 00:46:19;;;;;;;5.80;2.20;;;4.00;99.90;;;;;;477194;249;28072;-74
2022/02/22 00:48:20;;;;;;;2.92;2.40;;;4.00;99.90;;;;;;484958;245;27906;-75
2022/02/22 00:50:22;;;;;;;4.00;1.98;;;4.00;99.90;;;;;;484997;245;27838;-75
2022/02/22 00:52:23;;;;;;;5.95;2.40;;;4.00;99.90;;;;;;477198;249;29094;-74
2022/02/22 00:54:24;;;;;;;4.22;1.87;;;4.00;99.90;;;;;;484965;245;27367;-74
2022/02/22 00:56:25;;;;;;;4.78;2.00;;;4.00;99.90;;;;;;477159;249;27527;-74
2022/02/22 00:58:27;;;;;;;4.20;2.33;;;4.00;99.90;;;;;;484956;245;27371;-75
2022/02/22 01:00:28;;;;;;;3.90;1.95;;;4.00;99.90;;;;;;477182;249;27595;-75
2022/02/22 01:02:29;;;;;;;3.60;2.00;;;4.00;99.90;;;;;;484991;245;27413;-75
2022/02/22 01:04:30;;;;;;;4.95;2.20;;;4.10;99.90;;;;;;477168;249;27611;-75
2022/02/22 01:06:32;;;;;;;4.75;2.00;;;4.10;99.90;;;;;;484964;245;27530;-75
2022/02/22 01:08:33;;;;;;;1.83;1.70;;;4.10;99.90;;;;;;477176;249;27476;-75
2022/02/22 01:10:34;;;;;;;3.72;2.10;;;4.10;99.90;;;;;;484990;241;27399;-75
2022/02/22 01:12:35;;;;;;;1.95;1.60;;;4.20;99.90;;;;;;477165;249;27990;-75
2022/02/22 01:14:37;;;;;;;3.55;1.98;;;4.10;99.90;;;;;;484954;245;27903;-75
2022/02/22 01:16:38;;;;;;;3.33;1.90;;;4.10;99.90;;;;;;477192;249;28003;-75
2022/02/22 01:18:39;;;;;;;6.95;2.20;;;4.00;99.90;;;;;;484991;245;27892;-75
2022/02/22 01:20:40;;;;;;;7.35;2.10;;;4.00;99.90;;;;;;477200;249;27507;-75
2022/02/22 01:22:42;;;;;;;3.55;1.80;;;4.10;99.90;;;;;;484974;245;27404;-74
2022/02/22 01:24:43;;;;;;;5.43;3.00;;;4.00;99.90;;;;;;477181;249;27527;-75
2022/02/22 01:26:44;;;;;;;11.93;2.35;;;4.00;99.90;;;;;;484975;245;27439;-75
2022/02/22 01:28:45;;;;;;;8.52;2.50;;;4.00;99.90;;;;;;477169;249;27463;-74
2022/02/22 01:30:47;;;;;;;5.05;2.28;;;4.00;99.90;;;;;;484988;245;27403;-75
2022/02/22 01:32:48;;;;;;;5.53;2.72;;;4.00;99.90;;;;;;477190;249;27516;-75
2022/02/22 01:34:49;;;;;;;8.80;2.30;;;4.00;99.90;;;;;;485005;245;27420;-75
2022/02/22 01:36:50;;;;;;;4.60;2.37;;;4.00;99.90;;;;;;477191;249;27616;-74
2022/02/22 01:38:52;;;;;;;6.05;2.22;;;4.00;99.90;;;;;;485010;245;27828;-75
2022/02/22 01:40:55;;;;;;;6.90;2.45;;;4.00;99.90;;;;;;477147;249;28022;-74
2022/02/22 01:42:54;;;;;;;7.28;2.28;;;4.00;99.90;;;;;;484892;241;27985;-74
2022/02/22 01:44:55;;;;;;;4.62;2.20;;;3.90;99.90;;;;;;477181;249;29119;-74
2022/02/22 01:46:57;;;;;;;5.18;2.15;;;3.90;99.90;;;;;;484998;245;27493;-76
2022/02/22 01:48:58;;;;;;;3.20;2.35;;;3.90;99.90;;;;;;477188;249;27473;-74
2022/02/22 01:50:59;;;;;;;5.37;2.53;;;3.90;99.90;;;;;;484991;245;27451;-75
2022/02/22 01:53:01;;;;;;;7.47;2.25;;;3.90;99.90;;;;;;477192;249;27526;-76
2022/02/22 01:55:02;;;;;;;2.70;2.30;;;3.90;99.90;;;;;;484979;245;27359;-75
2022/02/22 01:57:03;;;;;;;3.95;2.40;;;3.80;99.90;;;;;;477100;249;27519;-74
2022/02/22 01:59:04;;;;;;;5.80;2.92;;;3.80;99.90;;;;;;484960;245;27482;-74
2022/02/22 02:01:05;;;;;;;6.07;2.25;;;3.80;99.90;;;;;;477172;249;27504;-75
2022/02/22 02:03:07;;;;;;;4.90;2.10;;;3.70;99.90;;;;;;484976;245;27411;-75
2022/02/22 02:05:08;;;;;;;2.97;2.17;;;3.70;99.90;;;;;;477186;249;27555;-74
2022/02/22 02:07:09;;;;;;;3.35;1.92;;;3.60;99.90;;;;;;484976;245;27862;-75
2022/02/22 02:09:10;;;;;;;3.87;2.40;;;3.50;99.90;;;;;;477176;249;27976;-75
2022/02/22 02:11:12;;;;;;;2.90;2.03;;;3.60;99.90;;;;;;484967;245;27869;-75
2022/02/22 02:13:13;;;;;;;1.92;1.80;;;3.60;99.90;;;;;;477186;249;27994;-74
2022/02/22 02:15:14;;;;;;;4.60;2.10;;;3.70;99.90;;;;;;484985;245;27419;-75
2022/02/22 02:17:15;;;;;;;3.45;2.25;;;3.70;99.90;;;;;;477171;249;27540;-75
2022/02/22 02:19:17;;;;;;;4.20;2.10;;;3.80;99.90;;;;;;484987;245;27480;-75
2022/02/22 02:21:18;;;;;;;5.20;2.45;;;3.80;99.90;;;;;;477180;249;27523;-75
2022/02/22 02:23:19;;;;;;;2.30;2.10;;;3.80;99.90;;;;;;484990;245;27427;-75
2022/02/22 02:25:20;;;;;;;3.83;2.25;;;3.70;99.90;;;;;;477186;249;27603;-75
2022/02/22 02:27:22;;;;;;;5.00;2.37;;;3.70;99.90;;;;;;484970;245;27494;-75
2022/02/22 02:29:23;;;;;;;4.53;2.15;;;3.70;99.90;;;;;;477169;249;27588;-75
2022/02/22 02:31:24;;;;;;;3.83;2.15;;;3.80;99.90;;;;;;484963;241;27495;-74
2022/02/22 02:33:25;;;;;;;2.45;2.25;;;3.70;99.90;;;;;;477160;249;27543;-74
2022/02/22 02:35:27;;;;;;;6.00;2.58;;;3.70;99.90;;;;;;484982;245;27922;-75
2022/02/22 02:37:28;;;;;;;5.68;2.55;;;3.70;99.90;;;;;;477169;249;28077;-74
2022/02/22 02:39:29;;;;;;;3.00;2.00;;;3.70;99.90;;;;;;484979;243;28940;-75
2022/02/22 02:41:30;;;;;;;2.97;2.25;;;3.80;99.90;;;;;;477151;249;27999;-75
2022/02/22 02:43:32;;;;;;;4.97;2.70;;;3.80;99.90;;;;;;484990;241;27475;-75
2022/02/22 02:45:33;;;;;;;5.00;2.40;;;3.70;99.90;;;;;;477174;249;27568;-75
2022/02/22 02:47:34;;;;;;;6.72;2.60;;;3.70;99.90;;;;;;484990;245;27395;-75
2022/02/22 02:49:35;;;;;;;6.97;2.87;;;3.70;99.90;;;;;;477161;249;27479;-74
2022/02/22 02:51:37;;;;;;;5.35;2.50;;;3.70;99.90;;;;;;484989;245;27379;-74
2022/02/22 02:53:38;;;;;;;3.05;2.30;;;3.70;99.90;;;;;;477168;249;27546;-75
2022/02/22 02:55:39;;;;;;;5.12;2.80;;;3.70;99.90;;;;;;484981;245;27364;-75
2022/02/22 02:57:40;;;;;;;5.32;2.83;;;3.70;99.90;;;;;;477177;249;27515;-74
2022/02/22 02:59:42;;;;;;;5.97;2.60;;;3.60;99.90;;;;;;484953;245;27368;-75
2022/02/22 03:01:43;;;;;;;14.05;3.10;;;3.60;99.90;;;;;;477175;249;27523;-75
2022/02/22 03:03:44;;;;;;;5.80;3.00;;;3.60;99.90;;;;;;485012;241;27989;-75
2022/02/22 03:05:45;;;;;;;11.35;3.35;;;3.50;99.90;;;;;;477187;249;27999;-75
2022/02/22 03:07:47;;;;;;;9.57;3.50;;;3.50;99.90;;;;;;484982;245;27876;-75
2022/02/22 03:09:48;;;;;;;4.03;2.87;;;3.50;99.90;;;;;;477174;249;27480;-75
2022/02/22 03:11:50;;;;;;;7.80;2.95;;;3.50;99.90;;;;;;484972;245;27391;-75
2022/02/22 03:13:50;;;;;;;7.15;3.10;;;3.50;99.90;;;;;;477115;249;27533;-75
2022/02/22 03:15:52;;;;;;;5.62;3.35;;;3.50;99.90;;;;;;484992;241;27377;-75
2022/02/22 03:17:53;;;;;;;8.85;3.55;;;3.50;99.90;;;;;;477157;249;27539;-75
2022/02/22 03:19:55;;;;;;;10.07;3.00;;;3.50;99.90;;;;;;484977;245;27458;-74
2022/02/22 03:21:55;;;;;;;6.18;2.95;;;3.40;99.90;;;;;;477149;249;27502;-74
2022/02/22 03:23:57;;;;;;;5.82;2.95;;;3.40;99.90;;;;;;484956;245;27415;-75
2022/02/22 03:25:58;;;;;;;6.50;3.17;;;3.40;99.90;;;;;;477139;249;27560;-74
2022/02/22 03:28:01;;;;;;;7.03;2.92;;;3.40;99.90;;;;;;484958;245;27884;-75
2022/02/22 03:30:00;;;;;;;12.80;3.87;;;3.40;99.90;;;;;;477001;249;28058;-75
2022/02/22 03:32:02;;;;;;;5.28;2.70;;;3.40;99.90;;;;;;484969;245;27853;-75
2022/02/22 03:34:03;;;;;;;3.08;2.83;;;3.50;99.90;;;;;;477190;249;28510;-74
2022/02/22 03:36:04;;;;;;;3.75;2.50;;;3.60;99.90;;;;;;484966;245;27455;-75
2022/02/22 03:38:05;;;;;;;5.15;3.25;;;3.70;99.90;;;;;;477175;249;27591;-75
2022/02/22 03:40:07;;;;;;;4.45;2.78;;;3.70;99.90;;;;;;484981;245;27467;-75
2022/02/22 03:42:08;;;;;;;4.05;2.78;;;3.70;99.90;;;;;;477189;249;27480;-75
2022/02/22 03:44:09;;;;;;;9.48;3.00;;;3.60;99.90;;;;;;484975;245;27494;-75
2022/02/22 03:46:10;;;;;;;4.72;2.67;;;3.60;99.90;;;;;;477155;249;27540;-76
2022/02/22 03:48:12;;;;;;;6.00;2.58;;;3.60;99.90;;;;;;485002;245;27448;-75
2022/02/22 03:50:13;;;;;;;4.55;2.25;;;3.60;99.90;;;;;;477201;249;27478;-75
2022/02/22 03:52:14;;;;;;;4.87;2.65;;;3.50;99.90;;;;;;484985;241;27375;-74
2022/02/22 03:54:15;;;;;;;8.82;2.80;;;3.50;99.90;;;;;;477159;249;27532;-75
2022/02/22 03:56:17;;;;;;;5.35;2.70;;;3.40;99.90;;;;;;485017;245;27851;-75
2022/02/22 03:58:18;;;;;;;6.30;2.65;;;3.40;99.90;;;;;;477187;249;27998;-75
2022/02/22 04:00:19;;;;;;;4.55;2.72;;;3.30;99.90;;;;;;485009;245;27821;-75
2022/02/22 04:02:20;;;;;;;4.07;2.75;;;3.30;99.90;;;;;;477189;249;29229;-75
2022/02/22 04:04:22;;;;;;;3.45;2.30;;;3.30;99.90;;;;;;484992;245;27405;-74
2022/02/22 04:06:23;;;;;;;3.65;2.28;;;3.20;99.90;;;;;;477160;249;27476;-75
2022/02/22 04:08:24;;;;;;;2.22;2.03;;;3.10;99.90;;;;;;484967;241;27416;-75
2022/02/22 04:10:25;;;;;;;4.53;2.70;;;3.00;99.90;;;;;;477216;249;27512;-75
2022/02/22 04:12:27;;;;;;;2.00;1.90;;;3.10;99.90;;;;;;485035;245;27376;-75
2022/02/22 04:14:28;;;;;;;2.17;1.90;;;3.10;99.90;;;;;;477210;249;27566;-76
2022/02/22 04:16:29;;;;;;;3.95;2.47;;;3.10;99.90;;;;;;485027;245;27364;-74
2022/02/22 04:18:30;;;;;;;2.92;2.17;;;3.00;99.90;;;;;;477215;249;27554;-75
2022/02/22 04:20:32;;;;;;;4.00;2.47;;;2.90;99.90;;;;;;485023;245;27380;-75
2022/02/22 04:22:33;;;;;;;2.37;1.90;;;2.80;99.90;;;;;;477231;249;27516;-75
2022/02/22 04:24:36;;;;;;;2.20;2.00;;;2.80;99.90;;;;;;485015;245;27901;-74
2022/02/22 04:26:35;;;;;;;4.55;2.17;;;2.80;99.90;;;;;;477134;249;27931;-75
2022/02/22 04:28:37;;;;;;;2.80;2.05;;;2.70;99.90;;;;;;484999;245;27885;-75
2022/02/22 04:30:38;;;;;;;2.08;1.90;;;2.70;99.90;;;;;;477189;249;27565;-75
2022/02/22 04:32:39;;;;;;;2.47;2.22;;;2.70;99.90;;;;;;484985;245;27372;-74
2022/02/22 04:34:40;;;;;;;2.65;2.10;;;2.60;99.90;;;;;;477211;249;27540;-75
2022/02/22 04:36:42;;;;;;;3.40;2.20;;;2.60;99.90;;;;;;484976;245;27492;-74
2022/02/22 04:38:43;;;;;;;3.55;2.40;;;2.60;99.90;;;;;;477166;249;27600;-74
2022/02/22 04:40:44;;;;;;;4.50;2.47;;;2.60;99.90;;;;;;484976;243;27469;-75
2022/02/22 04:42:48;;;;;;;3.47;2.60;;;2.60;99.90;;;;;;477165;249;27526;-74
2022/02/22 04:44:47;;;;;;;2.95;2.10;;;2.50;99.90;;;;;;484782;245;27494;-75
2022/02/22 04:46:48;;;;;;;2.45;2.25;;;2.50;99.90;;;;;;477198;249;27581;-75
2022/02/22 04:48:49;;;;;;;3.35;2.15;;;2.50;99.90;;;;;;484991;245;27526;-75
2022/02/22 04:50:50;;;;;;;6.65;2.47;;;2.50;99.90;;;;;;477176;249;27971;-75
2022/02/22 04:52:52;;;;;;;2.90;2.40;;;2.40;99.90;;;;;;484960;245;27997;-75
2022/02/22 04:54:53;;;;;;;3.65;2.50;;;2.40;99.90;;;;;;477215;249;28121;-75
2022/02/22 04:56:54;;;;;;;6.47;2.58;;;2.40;99.90;;;;;;484992;245;27846;-74
2022/02/22 04:58:56;;;;;;;2.15;2.05;;;2.40;99.90;;;;;;477165;249;27609;-75
2022/02/22 05:00:57;;;;;;;2.40;2.20;;;2.30;99.90;;;;;;484975;245;27363;-75
2022/02/22 05:02:58;;;;;;;3.65;2.42;;;2.30;99.90;;;;;;477164;249;27511;-75
2022/02/22 05:04:59;;;;;;;8.18;2.30;;;2.30;99.90;;;;;;485011;245;27408;-74
2022/02/22 05:07:00;;;;;;;6.32;2.90;;;2.30;99.90;;;;;;477180;249;27629;-75
2022/02/22 05:09:02;;;;;;;6.50;3.10;;;2.30;99.90;;;;;;484982;245;27427;-75
2022/02/22 05:11:03;;;;;;;2.70;2.50;;;2.30;99.90;;;;;;477165;249;27534;-75
2022/02/22 05:13:04;;;;;;;7.87;3.30;;;2.40;99.90;;;;;;484970;245;27475;-75
2022/02/22 05:15:05;;;;;;;4.97;3.28;;;2.40;99.90;;;;;;477187;249;27491;-74
2022/02/22 05:17:07;;;;;;;3.50;3.20;;;2.50;99.90;;;;;;484978;245;27375;-75
2022/02/22 05:19:08;;;;;;;7.53;3.40;;;2.60;99.90;;;;;;477174;249;28019;-75
2022/02/22 05:21:09;;;;;;;4.18;3.28;;;2.60;99.90;;;;;;484978;245;27947;-75
2022/02/22 05:23:10;;;;;;;5.18;3.83;;;2.50;99.90;;;;;;477162;249;28021;-75
2022/02/22 05:25:12;;;;;;;8.00;3.65;;;2.50;99.90;;;;;;485006;245;27958;-75
2022/02/22 05:27:13;;;;;;;6.28;4.20;;;2.40;99.90;;;;;;477238;249;27472;-75
2022/02/22 05:29:14;;;;;;;9.20;4.00;;;2.40;99.90;;;;;;485020;245;27414;-75
2022/02/22 05:31:16;;;;;;;4.68;3.62;;;2.40;99.90;;;;;;477193;249;27556;-74
2022/02/22 05:33:17;;;;;;;5.87;3.85;;;2.40;99.90;;;;;;484981;245;27499;-75
2022/02/22 05:35:18;;;;;;;5.05;3.60;;;2.40;99.90;;;;;;477209;249;27539;-74
2022/02/22 05:37:19;;;;;;;9.15;4.43;;;2.40;99.90;;;;;;485023;245;27384;-74
2022/02/22 05:39:20;;;;;;;8.35;3.78;;;2.30;99.90;;;;;;477184;249;27530;-75
2022/02/22 05:41:22;;;;;;;4.97;3.90;;;2.30;99.90;;;;;;484983;245;27375;-75
2022/02/22 05:43:23;;;;;;;6.45;4.30;;;2.40;99.90;;;;;;477175;249;27511;-75
2022/02/22 05:45:24;;;;;;;6.65;4.97;;;2.30;99.90;;;;;;484972;245;27510;-75
2022/02/22 05:47:26;;;;;;;9.75;4.05;;;2.30;99.90;;;;;;477187;249;27931;-75
2022/02/22 05:49:27;;;;;;;9.90;4.05;;;2.30;99.90;;;;;;485014;245;27890;-75
2022/02/22 05:51:28;;;;;;;4.68;4.18;;;2.30;99.90;;;;;;477194;249;28043;-75
2022/02/22 05:53:29;;;;;;;8.80;4.43;;;2.30;99.90;;;;;;484974;245;27889;-75
2022/02/22 05:55:30;;;;;;;6.03;4.12;;;2.30;99.90;;;;;;477197;249;27548;-75
2022/02/22 05:57:32;;;;;;;7.15;3.95;;;2.30;99.90;;;;;;484991;245;27459;-75
2022/02/22 05:59:33;;;;;;;5.95;3.67;;;2.30;99.90;;;;;;477192;249;27659;-74
2022/02/22 06:01:34;;;;;;;5.82;4.00;;;2.30;99.90;;;;;;485000;245;27370;-75
2022/02/22 06:03:35;;;;;;;6.82;4.28;;;2.40;99.90;;;;;;477157;249;27587;-75
2022/02/22 06:05:37;;;;;;;8.75;4.15;;;2.30;99.90;;;;;;484930;245;27482;-74
2022/02/22 06:07:38;;;;;;;11.15;4.50;;;2.30;99.90;;;;;;477210;249;27491;-75
2022/02/22 06:09:39;;;;;;;7.85;3.90;;;2.40;99.90;;;;;;484998;245;27407;-75
2022/02/22 06:11:40;;;;;;;5.78;3.60;;;2.30;99.90;;;;;;477185;249;27520;-75
2022/02/22 06:13:42;;;;;;;13.73;4.20;;;2.30;99.90;;;;;;484951;245;27424;-75
2022/02/22 06:15:43;;;;;;;7.47;4.40;;;2.30;99.90;;;;;;477176;249;28281;-75
2022/02/22 06:17:44;;;;;;;11.38;4.10;;;2.40;99.90;;;;;;485006;245;27826;-74
2022/02/22 06:19:45;;;;;;;6.30;4.00;;;2.30;99.90;;;;;;477191;249;28102;-75
2022/02/22 06:21:47;;;;;;;10.70;4.20;;;2.30;99.90;;;;;;484927;245;27372;-74
2022/02/22 06:23:48;;;;;;;7.78;4.87;;;2.30;99.90;;;;;;477200;249;27525;-75
2022/02/22 06:25:49;;;;;;;10.63;4.90;;;2.30;99.90;;;;;;484987;245;27383;-75
2022/02/22 06:27:50;;;;;;;10.75;4.72;;;2.40;99.90;;;;;;477155;249;27503;-75
2022/02/22 06:29:52;;;;;;;6.28;4.15;;;2.40;99.90;;;;;;484987;241;27446;-74
2022/02/22 06:31:53;;;;;;;13.10;5.10;;;2.50;99.90;;;;;;477184;249;27487;-75
2022/02/22 06:33:54;;;;;;;5.85;4.35;;;2.50;99.90;;;;;;484926;245;27399;-74
2022/02/22 06:35:55;;;;;;;6.28;4.65;;;2.50;99.90;;;;;;477172;249;27477;-74
2022/02/22 06:37:57;;;;;;;11.80;4.40;;;2.50;99.90;;;;;;484959;245;27883;-75
2022/02/22 06:39:59;;;;;;;10.30;4.72;;;2.50;99.90;;;;;;477119;249;28107;-74
2022/02/22 06:41:59;;;;;;;9.00;5.30;;;2.50;99.90;;;;;;485008;245;27836;-74
2022/02/22 06:44:00;;;;;;;14.07;5.12;;;2.60;99.90;;;;;;477211;249;27543;-75
2022/02/22 06:46:03;;;;;;;8.85;5.07;;;2.60;99.90;;;;;;485001;245;27359;-75
2022/02/22 06:48:03;;;;;;;11.32;5.12;;;2.70;99.90;;;;;;477152;249;27574;-75
2022/02/22 06:50:04;;;;;;;11.23;5.05;;;2.70;99.90;;;;;;485017;245;27403;-75
2022/02/22 06:52:05;;;;;;;9.45;5.47;;;2.80;99.90;;;;;;477212;249;27517;-74
2022/02/22 06:54:07;;;;;;;16.05;4.85;;;2.80;99.90;;;;;;484982;245;27411;-75
2022/02/22 06:56:08;;;;;;;7.65;4.57;;;2.90;99.90;;;;;;477182;249;27491;-74
2022/02/22 06:58:09;;;;;;;11.65;5.10;;;2.90;99.90;;;;;;484981;245;27485;-74
2022/02/22 07:00:11;;;;;;;12.60;5.72;;;2.90;99.90;;;;;;477163;249;27980;-75
2022/02/22 07:02:12;;;;;;;9.13;4.72;;;2.90;99.90;;;;;;484925;245;27830;-74
2022/02/22 07:04:13;;;;;;;13.18;4.55;;;2.90;99.90;;;;;;477070;249;28118;-75
2022/02/22 07:06:14;;;;;;;7.62;4.90;;;3.00;99.90;;;;;;484902;245;28077;-75
2022/02/22 07:08:15;;;;;;;11.27;4.32;;;3.00;99.90;;;;;;477148;249;27477;-74
2022/02/22 07:10:17;;;;;;;7.78;4.60;;;3.10;99.90;;;;;;484964;245;27413;-75
2022/02/22 07:12:18;;;;;;;11.95;4.25;;;3.10;99.90;;;;;;477141;249;27483;-74
2022/02/22 07:14:19;;;;;;;8.90;4.87;;;3.20;99.90;;;;;;484918;245;27487;-74
2022/02/22 07:16:20;;;;;;;12.75;5.82;;;3.20;99.90;;;;;;477126;249;27617;-75
2022/02/22 07:18:22;;;;;;;9.90;5.45;;;3.30;99.90;;;;;;484951;245;27367;-75
2022/02/22 07:20:23;;;;;;;14.38;5.10;;;3.30;99.90;;;;;;477140;249;27562;-75
2022/02/22 07:22:24;;;;;;;11.50;4.78;;;3.40;99.90;;;;;;484943;245;27381;-75
2022/02/22 07:24:26;;;;;;;8.57;4.62;;;3.40;99.90;;;;;;477174;249;28003;-75
2022/02/22 07:26:27;;;;;;;10.55;4.93;;;3.40;99.90;;;;;;484746;245;27893;-75
2022/02/22 07:28:28;;;;;;;10.15;4.43;;;3.40;99.90;;;;;;477136;249;27947;-74
2022/02/22 07:30:29;;;;;;;7.57;3.95;;;3.50;99.90;;;;;;485002;245;27408;-75
2022/02/22 07:32:31;;;;;;;7.60;4.60;;;3.50;99.90;;;;;;477183;249;27505;-75
2022/02/22 07:34:32;;;;;;;6.97;4.80;;;3.60;99.90;;;;;;484984;245;27407;-75
2022/02/22 07:36:33;;;;;;;7.00;4.72;;;3.60;99.90;;;;;;477161;249;27537;-76
2022/02/22 07:38:34;;;;;;;8.63;4.25;;;3.60;99.90;;;;;;485000;245;27451;-75
2022/02/22 07:40:36;;;;;;;11.88;5.03;;;3.60;99.90;;;;;;477171;249;27524;-75
2022/02/22 07:42:37;;;;;;;7.43;4.32;;;3.70;99.90;;;;;;484994;245;27530;-74
2022/02/22 07:44:38;;;;;;;8.48;4.62;;;3.70;99.90;;;;;;477200;249;27515;-75
2022/02/22 07:46:39;;;;;;;19.52;5.10;;;3.70;99.90;;;;;;485002;245;27482;-76
2022/02/22 07:48:41;;;;;;;9.90;4.80;;;3.70;99.90;;;;;;477200;249;27983;-75
2022/02/22 07:50:42;;;;;;;7.82;4.30;;;3.80;99.90;;;;;;484981;245;27881;-74
2022/02/22 07:52:43;;;;;;;14.30;5.20;;;3.80;99.90;;;;;;477190;249;28010;-75
2022/02/22 07:54:45;;;;;;;6.68;4.10;;;3.80;99.90;;;;;;484989;245;27380;-75
2022/02/22 07:56:46;;;;;;;12.30;4.37;;;3.80;99.90;;;;;;477158;249;27518;-74
2022/02/22 07:58:47;;;;;;;7.25;3.90;;;3.90;99.90;;;;;;485010;245;27360;-75
2022/02/22 08:00:48;;;;;;;10.45;4.40;;;3.90;99.90;;;;;;477187;249;27507;-75
2022/02/22 08:02:54;;;;;;;12.73;4.25;;;4.00;99.90;;;;;;484988;245;27389;-75
2022/02/22 08:04:51;;;;;;;12.02;4.20;;;4.00;99.90;;;;;;476841;249;27526;-75
2022/02/22 08:06:52;;;;;;;8.35;4.53;;;4.00;99.90;;;;;;484978;245;27514;-75
2022/02/22 08:08:53;;;;;;;8.93;4.30;;;4.00;99.90;;;;;;477218;249;27493;-75
2022/02/22 08:10:54;;;;;;;12.35;5.68;;;4.00;99.90;;;;;;484995;245;27963;-75
2022/02/22 08:12:56;;;;;;;12.73;5.30;;;4.10;99.90;;;;;;477180;249;29810;-75
2022/02/22 08:14:57;;;;;;;10.90;4.57;;;4.10;99.90;;;;;;484995;245;27456;-75
2022/02/22 08:17:00;;;;;;;14.40;5.15;;;4.10;99.90;;;;;;477203;249;27519;-75
2022/02/22 08:19:01;;;;;;;13.80;5.00;;;4.20;99.90;;;;;;484894;245;27364;-75
2022/02/22 08:21:01;;;;;;;10.20;5.25;;;4.20;99.90;;;;;;477082;249;27540;-76
2022/02/22 08:23:02;;;;;;;14.63;5.00;;;4.30;99.90;;;;;;484999;245;27408;-74
2022/02/22 08:25:03;;;;;;;9.60;4.18;;;4.30;99.90;;;;;;477202;249;27500;-76
2022/02/22 08:27:04;;;;;;;13.93;4.40;;;4.40;99.90;;;;;;485026;245;27399;-75
2022/02/22 08:29:06;;;;;;;6.37;4.40;;;4.50;99.90;;;;;;477224;249;28027;-75
2022/02/22 08:31:07;;;;;;;11.77;4.80;;;4.50;99.90;;;;;;485007;245;27986;-75
2022/02/22 08:33:08;;;;;;;9.40;4.30;;;4.60;99.90;;;;;;477223;249;27524;-75
2022/02/22 08:35:09;;;;;;;11.43;4.37;;;4.70;99.90;;;;;;485023;245;27376;-75
2022/02/22 08:37:11;;;;;;;10.20;4.35;;;4.70;99.90;;;;;;477233;249;27512;-76
2022/02/22 08:39:12;;;;;;;9.80;3.92;;;4.70;99.90;;;;;;484997;245;27382;-75
2022/02/22 08:41:13;;;;;;;11.07;4.20;;;4.80;99.90;;;;;;477212;249;27523;-75
2022/02/22 08:43:14;;;;;;;10.60;4.22;;;4.80;99.90;;;;;;485032;245;27435;-75
2022/02/22 08:45:16;;;;;;;8.65;4.25;;;5.00;99.90;;;;;;477200;249;27885;-76
2022/02/22 08:47:17;;;;;;;5.82;4.30;;;5.10;99.90;;;;;;485002;245;27906;-75
2022/02/22 08:49:18;;;;;;;11.30;3.58;;;5.10;99.90;;;;;;477213;249;28005;-75
2022/02/22 08:51:19;;;;;;;5.62;3.80;;;5.10;99.90;;;;;;484993;242;27379;-75
2022/02/22 08:53:21;;;;;;;12.27;3.70;;;5.10;99.90;;;;;;477215;249;27561;-76
2022/02/22 08:55:22;;;;;;;10.38;3.67;;;5.30;99.90;;;;;;484971;245;27447;-78
2022/02/22 08:57:23;;;;;;;8.20;4.05;;;5.40;99.90;;;;;;477200;249;27555;-74
2022/02/22 08:59:24;;;;;;;8.85;3.75;;;5.50;99.90;;;;;;484977;245;27471;-77
2022/02/22 09:01:26;;;;;;;9.98;3.30;;;5.50;99.90;;;;;;477152;249;27983;-74
2022/02/22 09:03:27;;;;;;;6.12;3.40;;;5.50;99.90;;;;;;484999;245;28013;-77
2022/02/22 09:05:28;;;;;;;10.57;3.92;;;5.60;99.90;;;;;;477095;249;27590;-75
2022/02/22 09:07:29;;;;;;;9.93;3.65;;;5.60;99.90;;;;;;484395;241;27430;-74
2022/02/22 09:09:31;;;;;;;7.55;3.67;;;5.50;99.90;;;;;;476980;249;27526;-76
2022/02/22 09:11:32;;;;;;;9.85;3.85;;;5.50;99.90;;;;;;485015;241;27397;-76
2022/02/22 09:13:33;;;;;;;10.57;4.05;;;5.60;99.90;;;;;;477220;249;27531;-76
2022/02/22 09:15:35;;;;;;;9.02;3.55;;;5.60;99.90;;;;;;485024;245;27831;-73
2022/02/22 09:17:36;;;;;;;8.45;3.50;;;5.70;99.90;;;;;;477159;249;28005;-78
2022/02/22 09:19:37;;;;;;;8.75;3.90;;;5.70;99.90;;;;;;484997;245;27372;-74
2022/02/22 09:21:38;;;;;;;10.50;3.80;;;5.50;99.90;;;;;;477213;249;27526;-77
2022/02/22 09:23:40;;;;;;;12.80;3.55;;;5.50;99.90;;;;;;485017;245;27448;-76
2022/02/22 09:25:41;;;;;;;12.02;3.85;;;5.60;99.90;;;;;;477208;249;27626;-77
2022/02/22 09:27:42;;;;;;;6.12;3.92;;;5.50;99.90;;;;;;484983;243;28008;-77
2022/02/22 09:29:44;;;;;;;12.25;4.12;;;5.50;99.90;;;;;;477191;249;28068;-76
2022/02/22 09:31:48;;;;;;;15.30;4.10;;;5.50;99.90;;;;;;484986;242;27463;-76
2022/02/22 09:33:47;;;;;;;12.25;4.70;;;5.50;99.90;;;;;;476900;249;27598;-77
2022/02/22 09:35:47;;;;;;;9.45;4.15;;;5.40;99.90;;;;;;484952;241;27446;-75
2022/02/22 09:37:48;;;;;;;8.10;4.37;;;5.50;99.90;;;;;;477206;249;27536;-78
2022/02/22 09:39:50;;;;;;;10.27;4.60;;;5.40;99.90;;;;;;484988;245;27427;-77
2022/02/22 09:41:51;;;;;;;12.93;5.22;;;5.50;99.90;;;;;;477192;249;28020;-74
2022/02/22 09:43:52;;;;;;;13.07;4.57;;;5.50;99.90;;;;;;484994;245;27932;-77
2022/02/22 09:45:53;;;;;;;11.43;5.53;;;5.50;99.90;;;;;;477202;249;27496;-75
2022/02/22 09:47:57;;;;;;;10.68;4.70;;;5.50;99.90;;;;;;484982;245;27415;-78
2022/02/22 09:49:56;;;;;;;15.38;4.60;;;5.60;99.90;;;;;;477028;249;27919;-77
2022/02/22 09:51:57;;;;;;;7.32;3.85;;;5.60;99.90;;;;;;484989;245;27467;-77
2022/02/22 09:53:58;;;;;;;8.00;3.97;;;5.60;99.90;;;;;;477208;249;28083;-76
2022/02/22 09:56:00;;;;;;;11.15;4.62;;;5.60;99.90;;;;;;484999;245;27930;-75
2022/02/22 09:58:01;;;;;;;17.92;5.00;;;5.60;99.90;;;;;;477191;249;27535;-74
2022/02/22 10:00:02;;;;;;;7.47;3.95;;;5.60;99.90;;;;;;485002;242;27415;-74
2022/02/22 10:02:03;;;;;;;14.68;4.47;;;5.60;99.90;;;;;;477177;249;27563;-74
2022/02/22 10:04:05;;;;;;;10.13;4.20;;;5.50;99.90;;;;;;484989;245;27416;-74
2022/02/22 10:06:06;;;;;;;11.40;4.70;;;5.60;99.90;;;;;;477204;249;27591;-76
2022/02/22 10:08:07;;;;;;;11.32;3.90;;;5.60;99.90;;;;;;485014;245;27900;-77
2022/02/22 10:10:09;;;;;;;11.90;3.90;;;5.60;99.90;;;;;;477240;249;28026;-75
2022/02/22 10:12:10;;;;;;;9.45;4.28;;;5.60;99.90;;;;;;485058;245;27383;-73
2022/02/22 10:14:11;;;;;;;10.38;3.62;;;5.60;99.90;;;;;;477241;249;27515;-73
2022/02/22 10:16:12;;;;;;;8.93;3.30;;;5.70;99.90;;;;;;485010;245;27382;-75
2022/02/22 10:18:14;;;;;;;17.87;4.95;;;5.70;99.90;;;;;;484978;245;27562;-75
2022/02/22 10:20:15;;;;;;;11.75;4.00;;;5.70;99.90;;;;;;477197;249;28038;-75
2022/02/22 10:22:16;;;;;;;6.65;3.75;;;5.80;99.90;;;;;;484989;245;27941;-77
2022/02/22 10:24:17;;;;;;;6.10;4.00;;;5.80;99.90;;;;;;477216;249;27516;-76
2022/02/22 10:26:19;;;;;;;16.00;4.70;;;5.80;99.90;;;;;;485003;245;27379;-77
2022/02/22 10:28:20;;;;;;;11.40;4.10;;;5.70;99.90;;;;;;477202;249;27498;-76
2022/02/22 10:30:21;;;;;;;7.65;4.00;;;5.70;99.90;;;;;;484994;245;27415;-77
2022/02/22 10:32:22;;;;;;;11.00;4.30;;;5.70;99.90;;;;;;477189;249;27500;-77
2022/02/22 10:34:24;;;;;;;10.45;4.07;;;5.70;99.90;;;;;;485001;245;27985;-75
2022/02/22 10:36:25;;;;;;;17.00;4.65;;;5.70;99.90;;;;;;477190;249;27899;-74
2022/02/22 10:38:29;;;;;;;18.30;4.40;;;5.80;99.90;;;;;;485022;245;27368;-74